Time;durP1;ratioP1;P1;durP2;ratioP2;P2;SDS_P1;SDS_P2;PMS_P1;PMS_P2;Temp;Humidity;BMP_temperature;BMP_pressure;BME280_temperature;BME280_humidity;BME280_pressure;Samples;Min_cycle;Max_cycle;Signal;HPM_P1;HPM_P2
2023/06/02 00:00:54;;;;;;;12.95;4.00;;;12.30;99.90;;;;;;4940798;29;20032;-73
2023/06/02 00:03:20;;;;;;;16.83;4.30;;;12.20;99.90;;;;;;4947776;29;20078;-73
2023/06/02 00:05:46;;;;;;;11.27;3.50;;;12.20;99.90;;;;;;4949570;29;20023;-74
2023/06/02 00:08:12;;;;;;;15.93;3.75;;;12.20;99.90;;;;;;4946189;29;20045;-74
2023/06/02 00:10:38;;;;;;;13.82;3.78;;;12.20;99.90;;;;;;4955598;28;20122;-73
2023/06/02 00:13:06;;;;;;;17.67;3.88;;;12.30;99.90;;;;;;4940261;28;20079;-73
2023/06/02 00:15:31;;;;;;;15.43;3.83;;;12.30;99.90;;;;;;4935417;29;20038;-73
2023/06/02 00:17:57;;;;;;;17.98;4.03;;;12.30;99.90;;;;;;4950409;29;20035;-73
2023/06/02 00:20:26;;;;;;;15.50;3.72;;;12.30;99.90;;;;;;4945940;29;20032;-73
2023/06/02 00:22:52;;;;;;;15.45;3.72;;;12.20;99.90;;;;;;4951859;29;20031;-74
2023/06/02 00:25:18;;;;;;;17.42;3.97;;;12.20;99.90;;;;;;4950613;29;20035;-73
2023/06/02 00:27:45;;;;;;;18.27;4.15;;;12.10;99.90;;;;;;4949872;29;20051;-73
2023/06/02 00:30:11;;;;;;;18.92;3.70;;;12.10;99.90;;;;;;4952240;29;20086;-73
2023/06/02 00:32:37;;;;;;;13.27;3.45;;;12.10;99.90;;;;;;4952157;28;20027;-73
2023/06/02 00:35:02;;;;;;;16.70;3.50;;;12.00;99.90;;;;;;4949645;29;20126;-73
2023/06/02 00:37:28;;;;;;;14.65;3.38;;;12.00;99.90;;;;;;4950022;29;20090;-74
2023/06/02 00:39:53;;;;;;;13.10;3.35;;;11.90;99.90;;;;;;4952510;28;20098;-73
2023/06/02 00:42:21;;;;;;;12.82;3.40;;;11.90;99.90;;;;;;4949254;29;20103;-73
2023/06/02 00:44:46;;;;;;;16.15;3.92;;;11.80;99.90;;;;;;4953027;28;20498;-73
2023/06/02 00:47:12;;;;;;;12.95;3.60;;;11.80;99.90;;;;;;4951494;28;20031;-73
2023/06/02 00:49:38;;;;;;;19.33;4.00;;;11.70;99.90;;;;;;4951040;28;20082;-73
2023/06/02 00:52:05;;;;;;;20.35;3.80;;;11.70;99.90;;;;;;4950479;28;20475;-73
2023/06/02 00:54:30;;;;;;;20.60;3.70;;;11.70;99.90;;;;;;4953020;28;20456;-74
2023/06/02 00:56:57;;;;;;;14.55;3.83;;;11.70;99.90;;;;;;4947050;29;20028;-73
2023/06/02 00:59:23;;;;;;;13.88;3.80;;;11.70;99.90;;;;;;4949207;29;20019;-72
2023/06/02 01:01:49;;;;;;;15.65;3.97;;;11.80;99.90;;;;;;4953465;28;20035;-72
2023/06/02 01:04:17;;;;;;;16.33;3.63;;;11.80;99.90;;;;;;4952735;29;20047;-73
2023/06/02 01:06:48;;;;;;;14.98;3.65;;;11.80;99.90;;;;;;4944446;29;20407;-72
2023/06/02 01:09:16;;;;;;;21.10;3.90;;;11.90;99.90;;;;;;4942902;29;20041;-73
2023/06/02 01:11:47;;;;;;;13.82;3.20;;;11.90;99.90;;;;;;4956283;29;20102;-73
2023/06/02 01:14:13;;;;;;;13.02;4.13;;;11.90;99.90;;;;;;4956481;29;20031;-73
2023/06/02 01:16:39;;;;;;;12.18;3.92;;;12.00;99.90;;;;;;4944824;28;20031;-72
2023/06/02 01:19:06;;;;;;;14.88;3.90;;;12.00;99.90;;;;;;4954330;28;20110;-74
2023/06/02 01:21:37;;;;;;;16.48;3.95;;;12.00;99.90;;;;;;4953712;29;20485;-72
2023/06/02 01:24:03;;;;;;;15.25;3.85;;;11.90;99.90;;;;;;4956398;28;20249;-73
2023/06/02 01:26:34;;;;;;;17.48;3.90;;;11.90;99.90;;;;;;4955669;29;20055;-73
2023/06/02 01:29:03;;;;;;;16.25;4.18;;;11.80;99.90;;;;;;4955654;28;20407;-74
2023/06/02 01:31:34;;;;;;;18.58;3.50;;;11.70;99.90;;;;;;4954222;28;20031;-73
2023/06/02 01:34:02;;;;;;;21.05;3.75;;;11.70;99.90;;;;;;4943530;28;20027;-73
2023/06/02 01:36:32;;;;;;;16.05;4.03;;;11.70;99.90;;;;;;4949134;29;20111;-73
2023/06/02 01:39:00;;;;;;;15.13;4.20;;;11.70;99.90;;;;;;4947458;28;20122;-73
2023/06/02 01:41:27;;;;;;;17.40;4.72;;;11.70;99.90;;;;;;4953299;29;20029;-73
2023/06/02 01:43:55;;;;;;;15.88;3.70;;;11.60;99.90;;;;;;4955616;29;20062;-73
2023/06/02 01:46:23;;;;;;;18.75;3.88;;;11.60;99.90;;;;;;4954832;28;20023;-73
2023/06/02 01:48:52;;;;;;;13.18;3.25;;;11.50;99.90;;;;;;4946646;29;20031;-73
2023/06/02 01:51:18;;;;;;;17.35;3.72;;;11.50;99.90;;;;;;4955610;28;20596;-73
2023/06/02 01:53:44;;;;;;;16.55;3.75;;;11.50;99.90;;;;;;4943902;29;20028;-73
2023/06/02 01:56:09;;;;;;;14.73;4.10;;;11.50;99.90;;;;;;4952216;29;20442;-73
2023/06/02 01:58:36;;;;;;;18.55;3.83;;;11.50;99.90;;;;;;4952047;28;20110;-73
2023/06/02 02:01:02;;;;;;;15.93;4.22;;;11.50;99.90;;;;;;4956275;29;20031;-72
2023/06/02 02:03:29;;;;;;;15.05;4.25;;;11.50;99.90;;;;;;4951045;28;20390;-72
2023/06/02 02:05:55;;;;;;;18.52;4.10;;;11.50;99.90;;;;;;4951817;28;20023;-71
2023/06/02 02:08:21;;;;;;;14.50;4.05;;;11.60;99.90;;;;;;4954718;28;20027;-73
2023/06/02 02:10:47;;;;;;;7.10;3.60;;;11.60;99.90;;;;;;4957162;28;20020;-73
2023/06/02 02:13:13;;;;;;;14.93;3.65;;;11.60;99.90;;;;;;4955604;28;20545;-73
2023/06/02 02:15:40;;;;;;;14.30;4.00;;;11.50;99.90;;;;;;4946569;28;20491;-73
2023/06/02 02:18:06;;;;;;;16.10;3.90;;;11.50;99.90;;;;;;4951775;28;20102;-73
2023/06/02 02:20:32;;;;;;;12.80;3.90;;;11.40;99.90;;;;;;4956564;29;20038;-73
2023/06/02 02:22:58;;;;;;;13.18;3.80;;;11.40;99.90;;;;;;4954504;28;20467;-74
2023/06/02 02:25:24;;;;;;;14.52;3.83;;;11.40;99.90;;;;;;4957222;28;20145;-73
2023/06/02 02:27:50;;;;;;;10.23;3.50;;;11.40;99.90;;;;;;4949551;28;20435;-73
2023/06/02 02:30:15;;;;;;;7.72;3.05;;;11.40;99.90;;;;;;4950059;29;20051;-73
2023/06/02 02:32:43;;;;;;;11.98;3.30;;;11.40;99.90;;;;;;4952040;28;20019;-73
2023/06/02 02:35:09;;;;;;;8.80;3.60;;;11.40;99.90;;;;;;4951372;29;20027;-73
2023/06/02 02:37:36;;;;;;;11.20;3.80;;;11.40;99.90;;;;;;4947603;28;20034;-73
2023/06/02 02:40:03;;;;;;;11.68;3.67;;;11.40;99.90;;;;;;4950080;29;20058;-73
2023/06/02 02:42:29;;;;;;;13.90;4.38;;;11.40;99.90;;;;;;4946047;28;20108;-73
2023/06/02 02:44:55;;;;;;;14.00;4.70;;;11.40;99.90;;;;;;4943797;29;20501;-73
2023/06/02 02:47:20;;;;;;;14.95;4.00;;;11.30;99.90;;;;;;4985019;28;20032;-73
2023/06/02 02:49:47;;;;;;;15.65;4.20;;;11.30;99.90;;;;;;4953685;28;20098;-73
2023/06/02 02:52:12;;;;;;;14.68;4.72;;;11.30;99.90;;;;;;4951355;29;20023;-73
2023/06/02 02:54:38;;;;;;;15.50;4.85;;;11.30;99.90;;;;;;4946511;29;20547;-73
2023/06/02 02:57:07;;;;;;;12.30;4.45;;;11.30;99.90;;;;;;4956969;29;20046;-73
2023/06/02 02:59:35;;;;;;;14.43;4.50;;;11.20;99.90;;;;;;4956571;28;20031;-73
2023/06/02 03:02:02;;;;;;;15.23;4.40;;;11.30;99.90;;;;;;4951371;29;20039;-72
2023/06/02 03:04:27;;;;;;;15.93;3.78;;;11.20;99.90;;;;;;4956602;28;20027;-72
2023/06/02 03:06:54;;;;;;;12.95;4.13;;;11.20;99.90;;;;;;4950466;28;20026;-73
2023/06/02 03:09:20;;;;;;;12.23;3.53;;;11.30;99.90;;;;;;4946900;29;20030;-73
2023/06/02 03:11:46;;;;;;;14.52;3.67;;;11.20;99.90;;;;;;4952654;28;20023;-73
2023/06/02 03:14:13;;;;;;;12.88;3.40;;;11.20;99.90;;;;;;4939571;29;20034;-73
2023/06/02 03:16:41;;;;;;;10.45;3.75;;;11.30;99.90;;;;;;4949016;29;20031;-72
2023/06/02 03:19:13;;;;;;;16.35;3.67;;;11.30;99.90;;;;;;4953427;28;20031;-73
2023/06/02 03:21:42;;;;;;;12.38;3.35;;;11.30;99.90;;;;;;4952026;28;20023;-73
2023/06/02 03:24:16;;;;;;;15.60;3.45;;;11.40;99.90;;;;;;4950199;29;20078;-72
2023/06/02 03:26:42;;;;;;;12.52;2.92;;;11.40;99.90;;;;;;4950073;29;20042;-73
2023/06/02 03:29:09;;;;;;;16.27;3.63;;;11.40;99.90;;;;;;4953768;28;20023;-73
2023/06/02 03:31:35;;;;;;;14.55;3.25;;;11.40;99.90;;;;;;4950284;28;20035;-73
2023/06/02 03:34:02;;;;;;;15.27;2.97;;;11.40;99.90;;;;;;4954484;28;20023;-73
2023/06/02 03:36:28;;;;;;;15.27;3.22;;;11.40;99.90;;;;;;4953652;29;20031;-73
2023/06/02 03:38:54;;;;;;;14.43;3.40;;;11.40;99.90;;;;;;4954315;28;20459;-73
2023/06/02 03:41:20;;;;;;;16.15;3.60;;;11.30;99.90;;;;;;4950002;29;20034;-73
2023/06/02 03:43:46;;;;;;;11.05;3.20;;;11.30;99.90;;;;;;4953638;28;20030;-73
2023/06/02 03:46:12;;;;;;;22.08;3.55;;;11.30;99.90;;;;;;4949717;28;20449;-74
2023/06/02 03:48:37;;;;;;;17.00;3.22;;;11.30;99.90;;;;;;4949359;29;20181;-73
2023/06/02 03:51:03;;;;;;;13.20;3.08;;;11.30;99.90;;;;;;4949125;29;20047;-72
2023/06/02 03:53:30;;;;;;;10.65;2.83;;;11.30;99.90;;;;;;4948389;28;20023;-73
2023/06/02 03:55:56;;;;;;;16.88;3.20;;;11.30;99.90;;;;;;4951680;28;20498;-73
2023/06/02 03:58:23;;;;;;;15.63;3.45;;;11.30;99.90;;;;;;4952298;28;20039;-73
2023/06/02 04:00:54;;;;;;;10.43;3.15;;;11.30;99.90;;;;;;4947116;29;20027;-72
2023/06/02 04:03:21;;;;;;;13.93;3.20;;;11.30;99.90;;;;;;4940871;29;20058;-73
2023/06/02 04:05:46;;;;;;;17.08;3.30;;;11.30;99.90;;;;;;4946146;29;20016;-73
2023/06/02 04:08:14;;;;;;;13.75;3.08;;;11.30;99.90;;;;;;4940888;28;20026;-73
2023/06/02 04:10:43;;;;;;;13.50;3.33;;;11.30;99.90;;;;;;4952062;28;20024;-72
2023/06/02 04:13:09;;;;;;;13.18;3.50;;;11.30;99.90;;;;;;4947062;29;20031;-73
2023/06/02 04:15:34;;;;;;;17.85;3.38;;;11.30;99.90;;;;;;4951687;29;20098;-73
2023/06/02 04:18:00;;;;;;;10.52;3.28;;;11.30;99.90;;;;;;4948732;29;20346;-73
2023/06/02 04:20:25;;;;;;;12.55;3.30;;;11.30;99.90;;;;;;4945044;29;20023;-73
2023/06/02 04:22:51;;;;;;;11.38;3.47;;;11.40;99.90;;;;;;4953017;29;20019;-73
2023/06/02 04:25:17;;;;;;;19.35;4.05;;;11.40;99.90;;;;;;4945569;29;20024;-73
2023/06/02 04:27:42;;;;;;;14.27;3.60;;;11.40;99.90;;;;;;4948011;29;20019;-73
2023/06/02 04:30:08;;;;;;;14.75;3.35;;;11.30;99.90;;;;;;4940803;29;20035;-73
2023/06/02 04:32:34;;;;;;;18.25;3.38;;;11.30;99.90;;;;;;4956923;29;20486;-73
2023/06/02 04:35:00;;;;;;;15.80;3.38;;;11.30;99.90;;;;;;4957066;28;20128;-73
2023/06/02 04:37:26;;;;;;;15.25;3.22;;;11.30;99.90;;;;;;4945742;28;20031;-73
2023/06/02 04:39:52;;;;;;;16.42;3.50;;;11.40;99.90;;;;;;4957284;29;20102;-73
2023/06/02 04:42:17;;;;;;;11.05;2.85;;;11.30;99.90;;;;;;4950573;28;20023;-72
2023/06/02 04:44:47;;;;;;;10.82;3.03;;;11.30;99.90;;;;;;4957320;28;20027;-73
2023/06/02 04:47:13;;;;;;;15.15;3.17;;;11.40;99.90;;;;;;4949243;29;20031;-73
2023/06/02 04:49:38;;;;;;;12.15;2.97;;;11.40;99.90;;;;;;4953319;28;20028;-72
2023/06/02 04:52:08;;;;;;;16.45;3.10;;;11.40;99.90;;;;;;4941852;29;20028;-73
2023/06/02 04:54:34;;;;;;;20.40;3.50;;;11.40;99.90;;;;;;4952508;29;20047;-73
2023/06/02 04:57:00;;;;;;;11.18;3.05;;;11.50;99.90;;;;;;4950176;29;20042;-73
2023/06/02 04:59:26;;;;;;;16.70;3.40;;;11.50;99.90;;;;;;4944568;29;20019;-73
2023/06/02 05:01:52;;;;;;;19.30;3.42;;;11.50;99.90;;;;;;4953999;29;20063;-73
2023/06/02 05:04:19;;;;;;;9.82;2.95;;;11.50;99.90;;;;;;4953720;28;20363;-73
2023/06/02 05:06:45;;;;;;;15.48;3.40;;;11.50;99.90;;;;;;4945539;29;20039;-73
2023/06/02 05:09:11;;;;;;;16.05;3.17;;;11.60;99.90;;;;;;4956818;28;20067;-74
2023/06/02 05:11:37;;;;;;;12.43;3.47;;;11.60;99.90;;;;;;4955750;28;20030;-73
2023/06/02 05:14:03;;;;;;;17.75;3.80;;;11.60;99.90;;;;;;4949012;28;20035;-73
2023/06/02 05:16:30;;;;;;;18.10;3.45;;;11.60;99.90;;;;;;4956868;29;20027;-73
2023/06/02 05:18:58;;;;;;;10.00;3.20;;;11.60;99.90;;;;;;4957089;28;20027;-71
2023/06/02 05:21:23;;;;;;;16.05;3.38;;;11.60;99.90;;;;;;4949197;29;20035;-72
2023/06/02 05:23:49;;;;;;;15.20;3.78;;;11.60;99.90;;;;;;4951736;29;20024;-73
2023/06/02 05:26:15;;;;;;;13.85;3.13;;;11.60;99.90;;;;;;4956653;29;20106;-71
2023/06/02 05:28:40;;;;;;;12.57;3.20;;;11.60;99.90;;;;;;4956375;28;20053;-74
2023/06/02 05:31:06;;;;;;;11.73;3.30;;;11.60;99.90;;;;;;4950814;29;20023;-73
2023/06/02 05:33:32;;;;;;;10.02;3.05;;;11.70;99.90;;;;;;4943867;28;20047;-73
2023/06/02 05:35:57;;;;;;;18.77;3.30;;;11.70;99.90;;;;;;4937446;29;20024;-74
2023/06/02 05:38:23;;;;;;;15.60;3.42;;;11.70;99.90;;;;;;4937141;29;20032;-73
2023/06/02 05:40:48;;;;;;;19.60;3.35;;;11.70;99.90;;;;;;4955278;28;20405;-73
2023/06/02 05:43:14;;;;;;;19.38;4.05;;;11.70;99.90;;;;;;4956359;28;20035;-73
2023/06/02 05:45:39;;;;;;;18.27;3.47;;;11.80;99.90;;;;;;4956609;29;20517;-73
2023/06/02 05:48:05;;;;;;;13.75;3.33;;;11.80;99.90;;;;;;4956030;28;20061;-73
2023/06/02 05:50:31;;;;;;;18.40;3.53;;;11.80;99.90;;;;;;4956479;29;20046;-73
2023/06/02 05:52:56;;;;;;;12.02;3.72;;;11.90;99.90;;;;;;4956063;28;20051;-73
2023/06/02 05:55:22;;;;;;;15.95;3.60;;;11.90;99.90;;;;;;4956220;28;20031;-73
2023/06/02 05:57:47;;;;;;;10.75;3.30;;;11.90;99.90;;;;;;4942861;29;20046;-73
2023/06/02 06:00:13;;;;;;;12.00;3.30;;;11.80;99.90;;;;;;4954523;28;20019;-73
2023/06/02 06:02:39;;;;;;;14.05;3.28;;;11.80;99.90;;;;;;4953063;28;20062;-73
2023/06/02 06:05:06;;;;;;;16.90;3.90;;;11.80;99.90;;;;;;4954776;28;20038;-73
2023/06/02 06:07:31;;;;;;;16.52;3.58;;;11.80;99.90;;;;;;4951087;29;20038;-73
2023/06/02 06:09:57;;;;;;;21.10;3.60;;;11.90;99.90;;;;;;4954663;28;20668;-73
2023/06/02 06:12:23;;;;;;;19.05;3.28;;;11.90;99.90;;;;;;4954672;29;20019;-73
2023/06/02 06:14:48;;;;;;;18.60;3.20;;;12.00;99.90;;;;;;4942357;28;20035;-73
2023/06/02 06:17:14;;;;;;;13.25;2.85;;;12.00;99.90;;;;;;4954595;29;20038;-73
2023/06/02 06:19:40;;;;;;;16.45;3.47;;;12.10;99.90;;;;;;4950860;28;20027;-73
2023/06/02 06:22:05;;;;;;;15.85;3.22;;;12.10;99.90;;;;;;4954209;29;20111;-73
2023/06/02 06:24:31;;;;;;;14.90;2.90;;;12.00;99.90;;;;;;4955221;28;20127;-73
2023/06/02 06:26:57;;;;;;;17.08;3.40;;;12.00;99.90;;;;;;4955603;29;20031;-75
2023/06/02 06:29:22;;;;;;;20.80;4.25;;;12.00;99.90;;;;;;4949576;29;20023;-73
2023/06/02 06:31:48;;;;;;;11.60;2.70;;;12.10;99.90;;;;;;4954261;29;20035;-71
2023/06/02 06:34:13;;;;;;;9.68;2.75;;;12.20;99.90;;;;;;4954069;29;20035;-72
2023/06/02 06:36:39;;;;;;;19.35;3.20;;;12.30;99.90;;;;;;4944620;29;20024;-72
2023/06/02 06:39:05;;;;;;;13.98;2.97;;;12.30;99.90;;;;;;4954831;29;20059;-72
2023/06/02 06:41:30;;;;;;;19.00;4.00;;;12.30;99.90;;;;;;4950274;29;20087;-73
2023/06/02 06:43:56;;;;;;;15.60;3.38;;;12.30;99.90;;;;;;4953314;29;20027;-73
2023/06/02 06:46:21;;;;;;;11.13;3.10;;;12.30;99.90;;;;;;4955360;28;20027;-73
2023/06/02 06:48:47;;;;;;;14.93;3.33;;;12.30;99.90;;;;;;4954114;29;20094;-72
2023/06/02 06:51:13;;;;;;;17.67;3.50;;;12.30;99.90;;;;;;4950299;28;20534;-73
2023/06/02 06:53:38;;;;;;;18.35;3.08;;;12.30;99.90;;;;;;4947372;29;20023;-73
2023/06/02 06:56:04;;;;;;;13.07;3.17;;;12.30;99.90;;;;;;4938315;28;20036;-74
2023/06/02 06:58:30;;;;;;;14.00;3.10;;;12.40;99.90;;;;;;4935883;29;20038;-73
2023/06/02 07:00:55;;;;;;;17.85;3.20;;;12.40;99.90;;;;;;4949333;29;20110;-73
2023/06/02 07:03:21;;;;;;;20.67;3.83;;;12.50;99.90;;;;;;4944004;29;20051;-72
2023/06/02 07:05:47;;;;;;;18.85;3.53;;;12.50;99.90;;;;;;4948665;29;20633;-74
2023/06/02 07:08:13;;;;;;;14.25;3.10;;;12.60;99.90;;;;;;4941783;28;20047;-73
2023/06/02 07:10:39;;;;;;;21.80;3.30;;;12.70;99.90;;;;;;4955695;28;20403;-73
2023/06/02 07:13:04;;;;;;;21.08;3.42;;;12.80;99.90;;;;;;4956881;28;20031;-74
2023/06/02 07:15:30;;;;;;;16.60;3.25;;;12.80;99.90;;;;;;4953059;28;20043;-73
2023/06/02 07:17:55;;;;;;;25.48;3.67;;;12.80;99.90;;;;;;4942490;29;20111;-72
2023/06/02 07:20:21;;;;;;;21.90;3.40;;;12.90;99.90;;;;;;4955190;29;20020;-73
2023/06/02 07:22:47;;;;;;;19.63;3.25;;;12.90;99.90;;;;;;4954842;28;20092;-72
2023/06/02 07:25:12;;;;;;;16.13;3.65;;;12.90;99.90;;;;;;4953779;29;20015;-73
2023/06/02 07:27:38;;;;;;;13.10;3.03;;;13.00;99.90;;;;;;4954152;28;20050;-74
2023/06/02 07:30:04;;;;;;;18.83;3.78;;;13.00;99.90;;;;;;4954036;28;20475;-74
2023/06/02 07:32:30;;;;;;;17.20;3.67;;;13.00;99.90;;;;;;4953699;28;20038;-74
2023/06/02 07:34:56;;;;;;;14.48;3.47;;;13.00;99.90;;;;;;4952431;28;20027;-73
2023/06/02 07:37:22;;;;;;;17.55;3.10;;;13.00;99.90;;;;;;4953897;28;20390;-73
2023/06/02 07:39:47;;;;;;;21.55;3.70;;;13.00;99.90;;;;;;4954690;28;20098;-73
2023/06/02 07:42:13;;;;;;;15.52;3.28;;;13.00;99.90;;;;;;4954021;28;20098;-73
2023/06/02 07:44:39;;;;;;;34.90;3.50;;;13.10;99.90;;;;;;4944370;28;20030;-73
2023/06/02 07:47:07;;;;;;;15.52;3.60;;;13.10;99.90;;;;;;4950126;29;20142;-73
2023/06/02 07:49:33;;;;;;;16.02;3.35;;;13.10;99.90;;;;;;4949736;29;20379;-74
2023/06/02 07:51:59;;;;;;;16.40;3.60;;;13.20;99.90;;;;;;4948644;29;20071;-74
2023/06/02 07:54:25;;;;;;;19.17;3.58;;;13.30;99.90;;;;;;4943743;28;20035;-73
2023/06/02 07:56:51;;;;;;;17.25;3.53;;;13.50;99.90;;;;;;4953987;28;20046;-74
2023/06/02 07:59:18;;;;;;;17.27;3.38;;;13.60;99.90;;;;;;4952970;28;20066;-74
2023/06/02 08:01:44;;;;;;;12.75;3.10;;;13.70;99.90;;;;;;4953898;28;20373;-73
2023/06/02 08:04:10;;;;;;;15.45;3.35;;;13.80;99.90;;;;;;4954563;28;20038;-73
2023/06/02 08:06:36;;;;;;;21.35;3.30;;;13.90;99.90;;;;;;4950109;28;20024;-73
2023/06/02 08:09:02;;;;;;;21.35;3.72;;;14.00;99.90;;;;;;4947155;29;20094;-73
2023/06/02 08:11:27;;;;;;;22.20;4.00;;;14.00;99.90;;;;;;4950487;29;20146;-73
2023/06/02 08:13:53;;;;;;;15.68;3.22;;;14.10;99.90;;;;;;4955859;29;20020;-74
2023/06/02 08:16:19;;;;;;;16.77;3.50;;;14.10;99.90;;;;;;4954859;28;20031;-74
2023/06/02 08:18:44;;;;;;;19.30;3.40;;;14.20;99.90;;;;;;4957466;28;20375;-74
2023/06/02 08:21:16;;;;;;;13.85;3.20;;;14.30;99.90;;;;;;4957474;29;20035;-73
2023/06/02 08:23:42;;;;;;;14.27;3.45;;;14.40;99.90;;;;;;4948149;28;20527;-74
2023/06/02 08:26:07;;;;;;;18.90;3.45;;;14.40;99.90;;;;;;4941722;29;20102;-74
2023/06/02 08:28:33;;;;;;;17.52;3.20;;;14.40;99.90;;;;;;4953932;29;20166;-74
2023/06/02 08:31:00;;;;;;;17.92;3.97;;;14.50;99.90;;;;;;4955488;29;20117;-74
2023/06/02 08:33:27;;;;;;;18.70;4.18;;;14.60;99.90;;;;;;4956989;28;20383;-74
2023/06/02 08:35:53;;;;;;;11.43;2.90;;;14.70;99.90;;;;;;4956936;29;20038;-74
2023/06/02 08:38:20;;;;;;;13.32;3.25;;;14.80;99.90;;;;;;4957240;29;20059;-74
2023/06/02 08:40:47;;;;;;;10.85;3.22;;;14.90;99.90;;;;;;4956503;29;20079;-74
2023/06/02 08:43:14;;;;;;;18.25;3.17;;;15.00;99.90;;;;;;4957393;28;20010;-73
2023/06/02 08:45:43;;;;;;;21.67;4.13;;;15.00;99.90;;;;;;4958852;29;20059;-72
2023/06/02 08:48:15;;;;;;;17.92;3.60;;;15.00;99.90;;;;;;4949717;28;20050;-72
2023/06/02 08:50:43;;;;;;;16.13;3.88;;;14.90;99.90;;;;;;4957977;28;20370;-73
2023/06/02 08:53:14;;;;;;;19.88;4.03;;;15.00;99.90;;;;;;4951583;28;20024;-73
2023/06/02 08:55:41;;;;;;;15.75;3.45;;;15.10;99.90;;;;;;4941831;29;20042;-72
2023/06/02 08:58:10;;;;;;;16.92;3.40;;;15.10;99.90;;;;;;4946968;29;20047;-73
2023/06/02 09:00:37;;;;;;;19.25;3.97;;;15.20;99.90;;;;;;4952831;28;20024;-73
2023/06/02 09:03:03;;;;;;;15.88;3.17;;;15.20;99.90;;;;;;4945116;29;20034;-73
2023/06/02 09:05:33;;;;;;;13.60;3.35;;;15.30;99.90;;;;;;4956369;28;20039;-74
2023/06/02 09:08:13;;;;;;;18.08;3.63;;;15.20;99.90;;;;;;4954721;29;20110;-73
2023/06/02 09:10:42;;;;;;;17.67;3.60;;;15.20;99.90;;;;;;4940808;29;20471;-73
2023/06/02 09:13:29;;;;;;;13.63;3.50;;;15.30;99.90;;;;;;4939346;29;20083;-74
2023/06/02 09:16:00;;;;;;;15.35;3.70;;;15.30;99.90;;;;;;4947896;28;20592;-74
2023/06/02 09:18:26;;;;;;;19.10;3.70;;;15.40;99.90;;;;;;4957923;28;20035;-73
2023/06/02 09:20:52;;;;;;;17.70;3.90;;;15.40;99.90;;;;;;4957279;28;20035;-73
2023/06/02 09:23:19;;;;;;;18.85;3.45;;;15.50;99.90;;;;;;4954556;29;20435;-73
2023/06/02 09:25:45;;;;;;;14.70;4.03;;;15.50;99.90;;;;;;4953213;28;20054;-74
2023/06/02 09:28:12;;;;;;;20.33;4.07;;;15.40;99.90;;;;;;4955384;28;20127;-73
2023/06/02 09:30:38;;;;;;;14.60;3.53;;;15.40;99.90;;;;;;4948703;28;20387;-74
2023/06/02 09:33:11;;;;;;;20.30;3.78;;;15.30;99.90;;;;;;4947763;29;20051;-74
2023/06/02 09:35:40;;;;;;;21.98;4.47;;;15.30;99.90;;;;;;4955338;29;20043;-74
2023/06/02 09:38:16;;;;;;;20.33;4.55;;;15.30;99.90;;;;;;4956644;28;20125;-73
2023/06/02 09:40:43;;;;;;;19.65;4.30;;;15.30;99.90;;;;;;4956191;28;20047;-73
2023/06/02 09:43:12;;;;;;;17.15;3.60;;;15.40;99.90;;;;;;4956674;28;20023;-73
2023/06/02 09:45:46;;;;;;;17.05;4.40;;;15.50;99.90;;;;;;4948589;28;20358;-73
2023/06/02 09:48:20;;;;;;;23.77;4.32;;;15.40;99.90;;;;;;4948001;29;20479;-74
2023/06/02 09:50:45;;;;;;;20.02;4.03;;;15.30;99.90;;;;;;4946611;28;20427;-74
2023/06/02 09:53:13;;;;;;;19.20;4.22;;;15.20;99.90;;;;;;4950338;28;20475;-74
2023/06/02 09:55:39;;;;;;;16.63;3.83;;;15.30;99.90;;;;;;4952787;29;20062;-73
2023/06/02 09:58:06;;;;;;;20.27;4.35;;;15.30;99.90;;;;;;4949619;28;20040;-73
2023/06/02 10:00:35;;;;;;;19.08;4.22;;;15.30;99.90;;;;;;4948680;29;20587;-73
2023/06/02 10:03:01;;;;;;;26.33;4.55;;;15.30;99.90;;;;;;4951818;28;20034;-73
2023/06/02 10:05:28;;;;;;;18.27;4.38;;;15.30;99.90;;;;;;4950739;29;20903;-74
2023/06/02 10:08:06;;;;;;;16.88;4.07;;;15.40;99.90;;;;;;4942843;29;20044;-73
2023/06/02 10:10:46;;;;;;;18.15;3.97;;;15.40;99.90;;;;;;4956030;28;20050;-74
2023/06/02 10:13:12;;;;;;;21.10;4.40;;;15.40;99.90;;;;;;4955484;28;20463;-73
2023/06/02 10:15:59;;;;;;;16.55;4.10;;;15.50;99.90;;;;;;4955863;29;20031;-73
2023/06/02 10:19:03;;;;;;;20.88;4.32;;;15.50;99.90;;;;;;4952529;29;20035;-73
2023/06/02 10:22:10;;;;;;;17.60;4.55;;;15.50;99.90;;;;;;4950432;29;20046;-73
2023/06/02 10:25:20;;;;;;;22.85;4.85;;;15.50;99.90;;;;;;4953795;28;20027;-74
2023/06/02 10:27:48;;;;;;;19.35;4.15;;;15.60;99.90;;;;;;4990297;28;20074;-74
2023/06/02 10:30:20;;;;;;;16.70;4.70;;;15.60;99.90;;;;;;4986470;28;20029;-74
2023/06/02 10:32:50;;;;;;;17.90;4.50;;;15.70;99.90;;;;;;4953366;28;20035;-73
2023/06/02 10:35:17;;;;;;;23.15;4.80;;;15.90;99.90;;;;;;4947690;29;20089;-73
2023/06/02 10:37:43;;;;;;;19.20;4.40;;;15.90;99.90;;;;;;4948855;28;20016;-73
2023/06/02 10:40:10;;;;;;;21.13;4.28;;;16.00;99.90;;;;;;4949941;29;20090;-73
2023/06/02 10:42:37;;;;;;;21.83;4.30;;;16.00;99.90;;;;;;4954488;28;20134;-73
2023/06/02 10:45:20;;;;;;;16.10;4.70;;;16.10;99.90;;;;;;4954770;28;20031;-73
2023/06/02 10:47:46;;;;;;;18.80;4.40;;;16.10;99.90;;;;;;4953165;28;20023;-73
2023/06/02 10:50:14;;;;;;;19.88;4.72;;;16.10;99.90;;;;;;4954468;28;20027;-74
2023/06/02 10:53:09;;;;;;;18.15;4.60;;;16.20;99.90;;;;;;4950037;28;20392;-73
2023/06/02 10:55:35;;;;;;;17.80;4.77;;;16.30;99.90;;;;;;4945067;28;20050;-73
2023/06/02 10:58:05;;;;;;;19.83;4.55;;;16.40;99.90;;;;;;4947974;28;20023;-73
2023/06/02 11:00:39;;;;;;;19.00;4.80;;;16.50;99.90;;;;;;4941412;29;20024;-74
2023/06/02 11:03:22;;;;;;;15.45;4.63;;;16.40;99.90;;;;;;4950445;29;20049;-74
2023/06/02 11:05:49;;;;;;;16.70;4.57;;;16.40;99.90;;;;;;4944811;28;20038;-74
2023/06/02 11:08:18;;;;;;;20.33;4.88;;;16.20;99.90;;;;;;4940216;28;20031;-74
2023/06/02 11:10:48;;;;;;;19.45;5.05;;;16.10;99.90;;;;;;4953106;28;20038;-74
2023/06/02 11:13:15;;;;;;;15.52;4.15;;;16.20;99.90;;;;;;4947078;29;20437;-74
2023/06/02 11:15:53;;;;;;;21.00;4.30;;;16.30;99.90;;;;;;4941304;28;20042;-74
2023/06/02 11:18:22;;;;;;;16.13;4.20;;;16.40;99.90;;;;;;4954454;28;20023;-73
2023/06/02 11:20:50;;;;;;;21.90;4.75;;;16.50;99.90;;;;;;4951965;28;20692;-74
2023/06/02 11:23:17;;;;;;;18.77;4.60;;;16.60;99.90;;;;;;4945550;28;20079;-73
2023/06/02 11:26:06;;;;;;;18.60;4.00;;;16.70;99.90;;;;;;4944686;28;20166;-74
2023/06/02 11:28:32;;;;;;;19.90;4.30;;;16.90;99.90;;;;;;4942100;29;20024;-74
2023/06/02 11:31:09;;;;;;;16.33;4.35;;;17.00;99.90;;;;;;4947799;28;20037;-74
2023/06/02 11:33:39;;;;;;;17.92;3.88;;;17.10;99.90;;;;;;4947903;29;20459;-74
2023/06/02 11:36:09;;;;;;;15.25;4.20;;;17.20;99.90;;;;;;4945665;29;20031;-73
2023/06/02 11:38:38;;;;;;;18.63;4.47;;;17.30;99.90;;;;;;4956573;28;20027;-74
2023/06/02 11:41:15;;;;;;;17.13;4.28;;;17.40;99.90;;;;;;4950362;28;20039;-74
2023/06/02 11:43:45;;;;;;;17.90;3.90;;;17.50;99.90;;;;;;4946178;29;20355;-73
2023/06/02 11:46:18;;;;;;;17.13;3.78;;;17.60;99.90;;;;;;4954150;28;20039;-74
2023/06/02 11:48:46;;;;;;;16.17;4.00;;;17.60;99.90;;;;;;4950481;28;20042;-74
2023/06/02 11:51:13;;;;;;;17.45;4.00;;;17.60;99.90;;;;;;4947758;28;20079;-74
2023/06/02 11:53:46;;;;;;;15.40;3.90;;;17.50;99.90;;;;;;4949497;28;20037;-74
2023/06/02 11:56:13;;;;;;;18.38;4.90;;;17.40;99.90;;;;;;4936003;29;20042;-74
2023/06/02 11:58:43;;;;;;;18.25;3.80;;;17.50;99.90;;;;;;4947213;29;20023;-74
2023/06/02 12:01:14;;;;;;;20.95;4.40;;;17.50;99.90;;;;;;4946822;29;20038;-74
2023/06/02 12:04:05;;;;;;;14.15;4.50;;;17.50;99.90;;;;;;4953754;28;20039;-74
2023/06/02 12:06:36;;;;;;;19.77;4.25;;;17.50;99.90;;;;;;4958035;28;20163;-73
2023/06/02 12:09:19;;;;;;;19.52;4.55;;;17.50;99.90;;;;;;4944481;29;20038;-76
2023/06/02 12:11:46;;;;;;;18.15;4.38;;;17.50;99.90;;;;;;4953133;29;20026;-75
2023/06/02 12:14:14;;;;;;;18.15;4.50;;;17.60;99.90;;;;;;4952404;28;20027;-74
2023/06/02 12:16:43;;;;;;;21.65;4.85;;;17.70;99.90;;;;;;4949028;28;20118;-74
2023/06/02 12:19:12;;;;;;;14.02;3.75;;;17.80;99.90;;;;;;4951391;29;20035;-73
2023/06/02 12:21:39;;;;;;;16.15;5.10;;;17.80;99.90;;;;;;4953080;29;20060;-73
2023/06/02 12:24:05;;;;;;;20.20;5.22;;;17.90;99.90;;;;;;4953051;28;20541;-74
2023/06/02 12:26:45;;;;;;;15.73;4.18;;;17.80;99.90;;;;;;4953417;29;20031;-74
2023/06/02 12:29:13;;;;;;;20.55;4.95;;;17.80;99.90;;;;;;4947304;28;20039;-74
2023/06/02 12:31:39;;;;;;;21.88;5.38;;;17.80;99.90;;;;;;4953411;28;20586;-73
2023/06/02 12:34:07;;;;;;;24.00;4.80;;;17.90;99.90;;;;;;4953567;28;20035;-73
2023/06/02 12:36:36;;;;;;;16.58;4.40;;;18.00;99.90;;;;;;4953093;28;20098;-73
2023/06/02 12:39:03;;;;;;;19.38;5.22;;;18.10;99.90;;;;;;4948710;29;20094;-74
2023/06/02 12:41:29;;;;;;;16.40;4.40;;;18.20;99.90;;;;;;4941525;29;20016;-73